Time;durP1;ratioP1;P1;durP2;ratioP2;P2;SDS_P1;SDS_P2;PMS_P1;PMS_P2;Temp;Humidity;BMP_temperature;BMP_pressure;BME280_temperature;BME280_humidity;BME280_pressure;Samples;Min_cycle;Max_cycle;Signal;HPM_P1;HPM_P2
2023/07/12 00:00:59;;;;;;;;;4.00;4.00;;;;;25.22;50.15;100443.16;5037104;28;46275;-79
2023/07/12 00:03:25;;;;;;;;;4.00;2.00;;;;;25.18;49.99;100449.97;5036550;28;45667;-80
2023/07/12 00:05:51;;;;;;;;;2.00;2.00;;;;;25.14;50.05;100451.44;5036886;28;45775;-81
2023/07/12 00:08:32;;;;;;;;;3.00;2.25;;;;;25.08;50.46;100453.09;5036663;28;45574;-75
2023/07/12 00:10:58;;;;;;;;;2.00;2.00;;;;;25.03;50.26;100455.56;5036449;28;45865;-81
2023/07/12 00:13:24;;;;;;;;;3.00;2.50;;;;;25.00;50.29;100459.47;5036262;28;45695;-75
2023/07/12 00:15:51;;;;;;;;;4.00;2.00;;;;;24.94;50.29;100465.66;5036476;28;45621;-79
2023/07/12 00:18:20;;;;;;;;;3.25;2.00;;;;;24.89;50.54;100465.44;5035862;28;45713;-75
2023/07/12 00:20:47;;;;;;;;;3.00;3.00;;;;;24.82;50.73;100464.59;5036044;28;45836;-75
2023/07/12 00:23:14;;;;;;;;;2.00;2.00;;;;;24.80;50.70;100460.47;5035659;28;45749;-76
2023/07/12 00:25:41;;;;;;;;;3.25;3.25;;;;;24.73;51.10;100463.13;5036708;28;45674;-81
2023/07/12 00:28:26;;;;;;;;;4.00;4.00;;;;;24.69;51.21;100475.31;5036203;28;46733;-75
2023/07/12 00:30:54;;;;;;;;;3.00;3.00;;;;;24.67;51.90;100474.66;5036450;28;46008;-77
2023/07/12 00:33:20;;;;;;;;;4.25;3.25;;;;;24.60;51.56;100466.66;5036041;28;45706;-79
2023/07/12 00:35:47;;;;;;;;;1.50;1.50;;;;;24.57;51.56;100460.84;5035975;28;45796;-76
2023/07/12 00:38:19;;;;;;;;;4.50;3.00;;;;;24.52;51.84;100471.34;5034911;28;48027;-75
2023/07/12 00:41:22;;;;;;;;;4.00;3.00;;;;;24.47;51.51;100466.59;5036511;28;45810;-74
2023/07/12 00:44:10;;;;;;;;;5.50;3.00;;;;;24.43;51.89;100477.94;5036573;28;45665;-79
2023/07/12 00:46:49;;;;;;;;;3.00;3.00;;;;;24.40;51.96;100475.66;5036375;28;45697;-75
2023/07/12 00:49:14;;;;;;;;;3.00;3.00;;;;;24.41;52.03;100474.63;5051157;28;47412;-75
2023/07/12 00:52:00;;;;;;;;;3.75;3.00;;;;;24.40;51.54;100487.19;5036063;28;45607;-75
2023/07/12 00:54:58;;;;;;;;;3.00;3.00;;;;;24.39;51.57;100477.53;5036771;28;45618;-81
2023/07/12 00:57:28;;;;;;;;;3.00;2.50;;;;;24.37;52.53;100484.91;5036278;28;45631;-79
2023/07/12 01:00:02;;;;;;;;;1.00;1.00;;;;;24.38;52.18;100483.91;5035883;28;46237;-74
2023/07/12 01:02:27;;;;;;;;;2.00;2.00;;;;;24.35;52.31;100486.97;5036134;28;46179;-81
2023/07/12 01:07:59;;;;;;;;;1.00;1.00;;;;;24.28;52.33;100478.09;5035868;28;45484;-82
2023/07/12 01:10:24;;;;;;;;;3.00;2.00;;;;;24.27;52.37;100480.97;5036124;28;46299;-81
2023/07/12 01:12:50;;;;;;;;;1.75;1.50;;;;;24.18;52.68;100483.03;5036081;28;45922;-76
2023/07/12 01:15:15;;;;;;;;;2.00;2.00;;;;;24.12;52.64;100481.09;5035843;28;45578;-78
2023/07/12 01:17:41;;;;;;;;;2.00;2.00;;;;;24.04;52.58;100490.13;5035758;28;45785;-74
2023/07/12 01:23:29;;;;;;;;;2.00;2.00;;;;;23.93;53.60;100500.56;5034751;28;45859;-76
2023/07/12 01:26:32;;;;;;;;;3.50;3.00;;;;;23.86;52.93;100500.53;5035445;28;45677;-80
2023/07/12 01:29:00;;;;;;;;;1.50;1.50;;;;;23.79;53.21;100507.72;5035614;28;45771;-80
2023/07/12 01:31:27;;;;;;;;;1.25;1.00;;;;;23.68;53.18;100497.56;5033742;28;47456;-79
2023/07/12 01:33:53;;;;;;;;;1.00;0.75;;;;;23.65;52.77;100509.47;5035285;28;46043;-80
2023/07/12 01:39:40;;;;;;;;;1.00;1.00;;;;;23.48;53.62;100488.59;5035109;28;45618;-79
2023/07/12 01:42:06;;;;;;;;;2.00;1.50;;;;;23.41;52.95;100513.41;5035471;28;45667;-85
2023/07/12 01:44:31;;;;;;;;;1.00;1.00;;;;;23.33;52.93;100504.69;5035019;28;46021;-78
2023/07/12 01:46:56;;;;;;;;;1.00;1.00;;;;;23.23;53.00;100515.72;5034493;28;45741;-80
2023/07/12 01:49:22;;;;;;;;;0.00;0.00;;;;;23.14;53.10;100502.69;5035059;28;45631;-82
2023/07/12 01:55:09;;;;;;;;;1.75;1.00;;;;;22.98;53.30;100517.16;5034463;28;45741;-81
2023/07/12 01:57:35;;;;;;;;;1.00;1.00;;;;;22.91;53.41;100506.41;5034633;28;45632;-81
2023/07/12 02:00:00;;;;;;;;;1.00;1.00;;;;;22.87;53.65;100515.81;5034567;28;45669;-79
2023/07/12 02:02:28;;;;;;;;;2.00;1.00;;;;;22.82;53.39;100517.41;5034570;28;45571;-83
2023/07/12 02:04:53;;;;;;;;;0.75;0.75;;;;;22.73;53.45;100511.34;5034403;28;46227;-83
2023/07/12 02:10:40;;;;;;;;;1.50;1.00;;;;;22.56;54.33;100518.72;5034547;28;45667;-87
2023/07/12 02:13:06;;;;;;;;;0.00;0.00;;;;;22.53;54.25;100524.47;5034488;28;45697;-81
2023/07/12 02:15:32;;;;;;;;;0.00;0.00;;;;;22.50;54.17;100526.69;5033010;28;46743;-78
2023/07/12 02:17:57;;;;;;;;;0.50;0.00;;;;;22.42;54.81;100514.28;5034540;28;45528;-77
2023/07/12 02:20:23;;;;;;;;;2.25;0.00;;;;;22.40;54.54;100526.97;5033031;28;46010;-78
2023/07/12 02:26:24;;;;;;;;;0.00;0.00;;;;;22.28;54.63;100547.19;5025458;28;45880;-82
2023/07/12 02:28:50;;;;;;;;;1.00;0.00;;;;;22.23;55.92;100538.91;5034511;28;45465;-79
2023/07/12 02:31:18;;;;;;;;;0.00;0.00;;;;;22.15;54.61;100537.16;5034788;28;45565;-75
2023/07/12 02:33:43;;;;;;;;;0.00;0.00;;;;;22.13;55.35;100535.69;5034001;28;45574;-75
2023/07/12 02:36:09;;;;;;;;;0.25;0.00;;;;;22.07;55.10;100537.25;5035472;28;45639;-78
2023/07/12 02:38:34;;;;;;;;;0.50;0.50;;;;;22.03;55.38;100533.28;5035290;28;45873;-83
2023/07/12 02:40:59;;;;;;;;;0.00;0.00;;;;;22.01;55.41;100532.66;5034341;28;45554;-84
2023/07/12 02:43:25;;;;;;;;;0.00;0.00;;;;;21.95;55.38;100545.91;5034109;28;46466;-84
2023/07/12 02:45:50;;;;;;;;;0.25;0.00;;;;;21.90;55.78;100550.94;5032699;28;47675;-76
2023/07/12 02:48:15;;;;;;;;;0.00;0.00;;;;;21.86;55.55;100565.66;5034257;28;45694;-80
2023/07/12 02:50:41;;;;;;;;;0.00;0.00;;;;;21.83;56.88;100552.66;5032807;28;45530;-84
2023/07/12 02:56:28;;;;;;;;;0.75;0.00;;;;;21.74;55.91;100586.63;5033674;28;45935;-85
2023/07/12 02:58:53;;;;;;;;;0.00;0.00;;;;;21.68;55.75;100580.16;5036232;28;45595;-81
2023/07/12 03:01:18;;;;;;;;;0.00;0.00;;;;;21.57;56.13;100569.94;5038203;28;45807;-80
2023/07/12 03:03:44;;;;;;;;;0.00;0.00;;;;;21.50;56.40;100574.31;5037534;28;46574;-81
2023/07/12 03:06:11;;;;;;;;;0.00;0.00;;;;;21.40;56.45;100584.41;5037657;28;45700;-81
2023/07/12 03:08:36;;;;;;;;;0.00;0.00;;;;;21.34;56.81;100566.47;5037691;28;45702;-75
2023/07/12 03:11:07;;;;;;;;;0.00;0.00;;;;;21.31;57.04;100569.50;5037802;28;45543;-77
2023/07/12 03:13:33;;;;;;;;;0.00;0.00;;;;;21.29;57.09;100564.34;5038147;28;45573;-85
2023/07/12 03:15:59;;;;;;;;;0.00;0.00;;;;;21.26;56.82;100570.06;5039774;28;45679;-77
2023/07/12 03:18:25;;;;;;;;;0.00;0.00;;;;;21.27;57.23;100570.84;5039868;28;45577;-80
2023/07/12 03:20:50;;;;;;;;;0.00;0.00;;;;;21.23;57.33;100578.38;5036317;28;45584;-76
2023/07/12 03:26:37;;;;;;;;;0.00;0.00;;;;;21.12;57.43;100575.28;5035098;28;45770;-78
2023/07/12 03:29:04;;;;;;;;;0.00;0.00;;;;;21.09;57.67;100584.47;5040230;28;45728;-75
2023/07/12 03:31:30;;;;;;;;;0.50;0.00;;;;;21.07;57.86;100582.97;5040271;28;45670;-79
2023/07/12 03:33:56;;;;;;;;;1.00;0.00;;;;;21.09;57.67;100592.47;5040318;28;46320;-78
2023/07/12 03:36:24;;;;;;;;;0.00;0.00;;;;;21.04;57.74;100594.81;5055500;28;46632;-76
2023/07/12 03:38:50;;;;;;;;;1.00;0.00;;;;;21.00;57.94;100580.19;5038646;28;45500;-77
2023/07/12 03:41:15;;;;;;;;;1.00;0.00;;;;;21.03;58.02;100584.34;5038404;28;45513;-83
2023/07/12 03:43:41;;;;;;;;;0.00;0.00;;;;;20.96;57.30;100584.22;5039368;28;45508;-81
2023/07/12 03:46:06;;;;;;;;;0.00;0.00;;;;;20.94;57.76;100587.03;5039844;28;45578;-88
2023/07/12 03:48:32;;;;;;;;;1.00;0.75;;;;;20.91;57.37;100591.91;5040427;28;45413;-84
2023/07/12 03:50:58;;;;;;;;;0.25;0.25;;;;;20.90;57.22;100580.41;5038301;28;45756;-76
2023/07/12 03:56:46;;;;;;;;;0.25;0.00;;;;;20.83;56.51;100600.78;5037801;28;45659;-77
2023/07/12 03:59:11;;;;;;;;;0.50;0.00;;;;;20.78;56.58;100605.78;5038528;28;45588;-78
2023/07/12 04:01:37;;;;;;;;;2.00;1.00;;;;;20.76;56.01;100609.66;5039497;28;45728;-77
2023/07/12 04:04:03;;;;;;;;;1.00;1.00;;;;;20.68;56.02;100604.34;5039238;28;47175;-78
2023/07/12 04:06:28;;;;;;;;;2.00;1.00;;;;;20.63;55.94;100614.69;5036813;28;47906;-76
2023/07/12 04:08:54;;;;;;;;;1.25;1.00;;;;;20.55;56.02;100612.91;5036257;28;45445;-78
2023/07/12 04:11:26;;;;;;;;;1.00;1.00;;;;;20.53;55.77;100617.56;5035315;28;45604;-78
2023/07/12 04:13:52;;;;;;;;;3.25;2.00;;;;;20.52;56.16;100613.25;5037182;28;45490;-83
2023/07/12 04:16:18;;;;;;;;;4.00;2.00;;;;;20.50;56.33;100612.59;5037063;28;46093;-87
2023/07/12 04:18:43;;;;;;;;;2.25;2.00;;;;;20.47;56.22;100624.41;5037010;28;45723;-81
2023/07/12 04:21:09;;;;;;;;;3.00;1.00;;;;;20.46;56.21;100613.94;5037826;28;45680;-79
2023/07/12 04:26:59;;;;;;;;;2.00;2.00;;;;;20.33;56.26;100622.47;5032725;28;46031;-78
2023/07/12 04:29:24;;;;;;;;;2.00;2.00;;;;;20.28;56.24;100634.59;5036295;28;45680;-79
2023/07/12 04:31:50;;;;;;;;;3.25;1.25;;;;;20.27;56.06;100635.59;5034887;28;45559;-79
2023/07/12 04:34:15;;;;;;;;;0.00;0.00;;;;;20.20;56.34;100650.59;5035819;28;46369;-78
2023/07/12 04:36:41;;;;;;;;;1.00;1.00;;;;;20.11;56.52;100641.81;5036118;28;45644;-79
2023/07/12 04:39:08;;;;;;;;;1.00;1.00;;;;;20.08;56.37;100634.97;5037768;28;45612;-83
2023/07/12 04:41:33;;;;;;;;;1.75;1.50;;;;;20.02;56.51;100635.69;5036630;28;45535;-79
2023/07/12 04:43:58;;;;;;;;;2.00;2.00;;;;;20.06;56.55;100673.41;5036468;28;46442;-84
2023/07/12 04:46:24;;;;;;;;;2.25;2.00;;;;;20.00;56.16;100666.94;5037039;28;45776;-81
2023/07/12 04:48:51;;;;;;;;;1.00;1.00;;;;;19.93;57.13;100673.91;5037629;28;45806;-85
2023/07/12 04:51:16;;;;;;;;;2.50;1.50;;;;;19.90;56.82;100660.97;5036809;28;45600;-81
2023/07/12 04:57:04;;;;;;;;;1.50;1.00;;;;;19.81;57.30;100661.94;5035885;28;46012;-81
2023/07/12 04:59:29;;;;;;;;;2.00;2.00;;;;;19.78;57.25;100646.34;5036912;28;45873;-79
2023/07/12 05:01:55;;;;;;;;;1.00;1.00;;;;;19.76;57.25;100658.94;5037623;28;45484;-79
2023/07/12 05:04:20;;;;;;;;;2.25;2.00;;;;;19.77;57.52;100662.44;5041382;28;45666;-81
2023/07/12 05:06:46;;;;;;;;;2.50;1.75;;;;;19.76;57.70;100664.28;5050382;28;45480;-79
2023/07/12 05:09:11;;;;;;;;;2.00;2.00;;;;;19.77;57.58;100671.25;5048360;28;45580;-78
2023/07/12 05:11:37;;;;;;;;;2.00;2.00;;;;;19.78;57.50;100685.38;5044808;28;45455;-78
2023/07/12 05:14:02;;;;;;;;;1.25;1.25;;;;;19.74;57.63;100660.97;5038834;28;45534;-84
2023/07/12 05:16:28;;;;;;;;;2.00;2.00;;;;;19.71;57.30;100690.53;5038102;28;46170;-78
2023/07/12 05:18:53;;;;;;;;;1.25;1.00;;;;;19.65;57.75;100686.69;5036719;28;45512;-78
2023/07/12 05:21:20;;;;;;;;;2.00;2.00;;;;;19.61;57.32;100673.91;5035693;28;45672;-80
2023/07/12 05:27:07;;;;;;;;;1.75;1.00;;;;;19.57;57.35;100691.19;5033278;28;45532;-80
2023/07/12 05:29:34;;;;;;;;;2.00;2.00;;;;;19.56;57.21;100697.50;5037106;28;45469;-79
2023/07/12 05:31:59;;;;;;;;;1.00;1.00;;;;;19.54;57.59;100695.00;5035845;28;45754;-74
2023/07/12 05:34:25;;;;;;;;;1.25;1.00;;;;;19.55;57.66;100688.69;5033663;28;46263;-80
2023/07/12 05:36:50;;;;;;;;;2.25;1.50;;;;;19.60;57.01;100696.16;5035760;28;45635;-77
2023/07/12 05:42:40;;;;;;;;;1.75;1.00;;;;;19.57;56.99;100702.66;5034199;28;45680;-77
2023/07/12 05:45:07;;;;;;;;;2.00;1.50;;;;;19.58;57.13;100708.81;5035020;28;46534;-78
2023/07/12 05:47:32;;;;;;;;;2.75;2.00;;;;;19.61;56.93;100713.78;5035230;28;45572;-78
2023/07/12 05:49:57;;;;;;;;;2.25;2.00;;;;;19.63;56.53;100712.66;5035412;28;45663;-80
2023/07/12 05:52:23;;;;;;;;;2.00;1.25;;;;;19.65;56.75;100709.78;5035227;28;45712;-75
2023/07/12 05:54:48;;;;;;;;;2.00;1.00;;;;;19.69;56.91;100706.66;5034390;28;45582;-74
2023/07/12 05:57:13;;;;;;;;;1.75;1.00;;;;;19.73;56.63;100717.78;5035318;28;45662;-79
2023/07/12 05:59:39;;;;;;;;;2.00;1.00;;;;;19.75;56.55;100712.31;5037253;28;45642;-73
2023/07/12 06:02:06;;;;;;;;;3.00;2.00;;;;;19.76;56.10;100711.31;5039514;28;45659;-79
2023/07/12 06:04:32;;;;;;;;;2.00;2.00;;;;;19.76;56.26;100738.72;5037522;28;46286;-77
2023/07/12 06:06:57;;;;;;;;;1.00;1.00;;;;;19.76;56.28;100720.09;5039554;28;46220;-75
2023/07/12 06:12:44;;;;;;;;;2.00;1.75;;;;;19.72;56.37;100718.78;5034089;28;45727;-75
2023/07/12 06:15:10;;;;;;;;;2.00;2.00;;;;;19.71;55.72;100730.41;5034612;28;45908;-73
2023/07/12 06:17:36;;;;;;;;;1.75;1.75;;;;;19.72;56.34;100728.59;5034597;28;46403;-78
2023/07/12 06:20:02;;;;;;;;;2.50;1.00;;;;;19.74;55.89;100731.91;5034546;28;45607;-80
2023/07/12 06:22:28;;;;;;;;;1.00;1.00;;;;;19.75;56.27;100737.09;5034681;28;45538;-79
2023/07/12 06:24:53;;;;;;;;;2.25;2.00;;;;;19.73;55.70;100755.00;5034710;28;45812;-80
2023/07/12 06:27:19;;;;;;;;;2.00;2.00;;;;;19.74;55.93;100735.41;5034409;28;45586;-78
2023/07/12 06:29:45;;;;;;;;;1.00;1.00;;;;;19.72;55.98;100734.72;5034747;28;45752;-75
2023/07/12 06:32:12;;;;;;;;;1.75;1.00;;;;;19.73;56.05;100732.91;5034510;28;45555;-76
2023/07/12 06:34:37;;;;;;;;;2.00;2.00;;;;;19.74;56.24;100735.41;5049706;28;47446;-76
2023/07/12 06:37:03;;;;;;;;;2.75;2.00;;;;;19.76;55.83;100745.88;5034856;28;45691;-77
2023/07/12 06:42:50;;;;;;;;;3.75;2.00;;;;;19.70;55.80;100750.03;5034863;28;45709;-82
2023/07/12 06:45:15;;;;;;;;;3.00;1.00;;;;;19.69;56.09;100759.84;5034966;28;46389;-77
2023/07/12 06:47:40;;;;;;;;;2.00;2.00;;;;;19.67;55.97;100759.16;5034722;28;45700;-76
2023/07/12 06:50:06;;;;;;;;;0.75;0.00;;;;;19.68;55.80;100768.81;5034600;28;45613;-81
2023/07/12 06:52:32;;;;;;;;;1.00;1.00;;;;;19.67;55.51;100771.63;5034903;28;45528;-76
2023/07/12 06:54:57;;;;;;;;;1.50;1.50;;;;;19.65;55.52;100765.63;5034520;28;45864;-80
2023/07/12 06:57:23;;;;;;;;;1.75;1.00;;;;;19.62;55.57;100773.94;5034503;28;45555;-81
2023/07/12 06:59:48;;;;;;;;;2.00;2.00;;;;;19.56;55.05;100756.81;5035248;28;46132;-83
2023/07/12 07:02:14;;;;;;;;;2.25;1.75;;;;;19.54;54.84;100758.00;5034937;28;45570;-82
2023/07/12 07:04:40;;;;;;;;;3.00;2.50;;;;;19.56;55.34;100771.94;5034217;28;45694;-83
2023/07/12 07:07:05;;;;;;;;;2.25;1.00;;;;;19.55;55.08;100762.28;5034191;28;46271;-79
2023/07/12 07:12:52;;;;;;;;;2.25;1.00;;;;;19.59;54.79;100759.16;5035239;28;45572;-82
2023/07/12 07:15:17;;;;;;;;;2.00;1.00;;;;;19.65;54.58;100785.06;5035682;28;45660;-85
2023/07/12 07:17:43;;;;;;;;;2.00;1.25;;;;;19.70;54.43;100784.59;5034777;28;46360;-82
2023/07/12 07:20:09;;;;;;;;;1.25;1.00;;;;;19.70;54.33;100766.78;5034478;28;45649;-83
2023/07/12 07:22:34;;;;;;;;;3.50;2.00;;;;;19.74;54.53;100766.47;5033184;28;45569;-81
2023/07/12 07:28:21;;;;;;;;;3.00;2.00;;;;;19.87;54.26;100767.66;5022296;28;45979;-80
2023/07/12 07:30:55;;;;;;;;;2.75;2.75;;;;;19.90;54.26;100780.63;5033922;28;45615;-82
2023/07/12 07:33:20;;;;;;;;;1.75;1.75;;;;;19.94;53.98;100784.63;5033857;28;45635;-76
2023/07/12 07:35:46;;;;;;;;;2.00;1.00;;;;;20.00;53.65;100781.31;5034167;28;45693;-78
2023/07/12 07:38:13;;;;;;;;;2.25;1.50;;;;;20.04;53.99;100784.44;5034574;28;45615;-80
2023/07/12 07:40:40;;;;;;;;;3.50;2.00;;;;;20.08;53.45;100786.59;5034527;28;45611;-80
2023/07/12 07:43:06;;;;;;;;;4.00;2.25;;;;;20.10;53.50;100783.78;5034226;28;45559;-83
2023/07/12 07:45:32;;;;;;;;;3.00;2.00;;;;;20.11;53.37;100772.16;5036893;28;45508;-76
2023/07/12 07:47:57;;;;;;;;;2.00;1.00;;;;;20.15;53.22;100776.13;5037515;28;45669;-78
2023/07/12 07:50:23;;;;;;;;;1.25;1.25;;;;;20.15;52.89;100784.13;5037265;28;45402;-79
2023/07/12 07:52:48;;;;;;;;;3.00;2.00;;;;;20.13;53.00;100794.13;5037258;28;45441;-81
2023/07/12 07:55:14;;;;;;;;;2.00;2.00;;;;;20.15;52.93;100780.63;5036941;28;45480;-78
2023/07/12 07:57:39;;;;;;;;;1.00;1.00;;;;;20.15;52.46;100775.31;5035398;28;47323;-80
2023/07/12 08:00:10;;;;;;;;;2.00;1.00;;;;;20.17;52.70;100776.81;5037158;28;45634;-80
2023/07/12 08:02:35;;;;;;;;;2.50;2.00;;;;;20.22;52.72;100784.28;5036803;28;45548;-78
2023/07/12 08:05:01;;;;;;;;;2.00;1.00;;;;;20.27;52.84;100788.13;5036656;28;46305;-77
2023/07/12 08:07:26;;;;;;;;;1.25;1.00;;;;;20.34;52.21;100789.16;5037124;28;46058;-78
2023/07/12 08:13:14;;;;;;;;;1.75;1.00;;;;;20.44;52.00;100795.13;5036547;28;45658;-76
2023/07/12 08:15:41;;;;;;;;;2.00;1.00;;;;;20.53;51.55;100810.06;5036726;28;45679;-76
2023/07/12 08:18:10;;;;;;;;;1.75;1.00;;;;;20.57;51.57;100805.25;5036984;28;45579;-77
2023/07/12 08:20:35;;;;;;;;;1.00;0.50;;;;;20.59;50.94;100795.25;5036776;28;45606;-78
2023/07/12 08:23:02;;;;;;;;;0.50;0.50;;;;;20.59;50.92;100784.63;5037141;28;45537;-80
2023/07/12 08:25:28;;;;;;;;;2.25;2.00;;;;;20.63;50.80;100783.25;5037243;28;45605;-81
2023/07/12 08:27:53;;;;;;;;;3.00;2.00;;;;;20.66;50.86;100779.44;5036403;28;45946;-78
2023/07/12 08:30:20;;;;;;;;;1.75;1.00;;;;;20.71;50.69;100788.59;5036731;28;45583;-81
2023/07/12 08:32:45;;;;;;;;;1.50;1.50;;;;;20.76;50.67;100783.59;5036666;28;45635;-78
2023/07/12 08:35:11;;;;;;;;;1.25;1.00;;;;;20.81;50.31;100785.72;5036366;28;46322;-79
2023/07/12 08:37:37;;;;;;;;;2.00;2.00;;;;;20.86;50.29;100783.38;5037206;28;46001;-79
2023/07/12 08:43:30;;;;;;;;;2.00;2.00;;;;;20.99;50.53;100785.50;5038657;28;45672;-83
2023/07/12 08:46:03;;;;;;;;;2.50;2.00;;;;;21.04;50.28;100786.66;5038812;28;45715;-79
2023/07/12 08:48:29;;;;;;;;;3.50;1.25;;;;;21.09;50.14;100797.63;5038493;28;46340;-76
2023/07/12 08:50:55;;;;;;;;;3.25;1.00;;;;;21.16;49.89;100803.94;5036869;28;45902;-76
2023/07/12 08:53:25;;;;;;;;;2.00;2.00;;;;;21.17;49.69;100788.78;5037773;28;45595;-79
2023/07/12 08:55:52;;;;;;;;;1.00;1.00;;;;;21.18;49.71;100787.78;5035703;28;45491;-78
2023/07/12 08:58:26;;;;;;;;;4.00;2.00;;;;;21.17;49.88;100792.28;5036856;28;46265;-79
2023/07/12 09:01:14;;;;;;;;;1.00;1.00;;;;;21.15;49.08;100796.97;5036564;28;45576;-79
2023/07/12 09:03:39;;;;;;;;;1.25;1.25;;;;;21.12;48.76;100794.59;5037405;28;45555;-84
2023/07/12 09:06:13;;;;;;;;;1.00;1.00;;;;;21.15;48.67;100809.47;5037342;28;46493;-83
2023/07/12 09:08:47;;;;;;;;;1.00;1.00;;;;;21.14;48.76;100800.63;5036061;28;45456;-76
2023/07/12 09:11:19;;;;;;;;;2.00;1.00;;;;;21.22;48.31;100808.59;5035942;28;45476;-79
2023/07/12 09:13:46;;;;;;;;;1.00;1.00;;;;;21.25;48.42;100794.09;5036651;28;45697;-82
2023/07/12 09:16:34;;;;;;;;;1.75;1.25;;;;;21.34;48.47;100804.53;5035579;28;46950;-82
2023/07/12 09:19:23;;;;;;;;;2.00;1.00;;;;;21.42;48.38;100819.69;5035812;28;45877;-81
2023/07/12 09:21:53;;;;;;;;;1.75;1.75;;;;;21.43;47.95;100829.31;5034470;28;45750;-82
2023/07/12 09:24:22;;;;;;;;;0.00;0.00;;;;;21.47;46.92;100824.47;5035785;28;45699;-81
2023/07/12 09:26:49;;;;;;;;;1.25;1.00;;;;;21.45;47.06;100821.16;5035434;28;46259;-86
2023/07/12 09:29:18;;;;;;;;;0.50;0.50;;;;;21.44;47.00;100819.47;5034962;28;46598;-84
2023/07/12 09:31:45;;;;;;;;;1.00;1.00;;;;;21.46;46.67;100817.47;5036066;28;45634;-87
2023/07/12 09:34:23;;;;;;;;;3.00;1.50;;;;;21.50;46.97;100816.94;5035459;28;45669;-85
2023/07/12 09:36:57;;;;;;;;;0.00;0.00;;;;;21.59;46.94;100828.44;5035946;28;45809;-83
2023/07/12 09:39:23;;;;;;;;;0.75;0.75;;;;;21.64;45.92;100815.41;5035294;28;46317;-79
2023/07/12 09:41:53;;;;;;;;;0.25;0.25;;;;;21.67;45.84;100834.53;5035349;28;45622;-81
2023/07/12 09:44:19;;;;;;;;;1.50;1.00;;;;;21.68;45.50;100836.19;5035393;28;45752;-78
2023/07/12 09:47:12;;;;;;;;;1.25;1.00;;;;;21.71;45.20;100832.34;5035275;28;45546;-77
2023/07/12 09:49:49;;;;;;;;;1.00;1.00;;;;;21.74;45.13;100845.34;5030221;28;45956;-77
2023/07/12 09:52:23;;;;;;;;;0.00;0.00;;;;;21.77;45.11;100824.47;5035336;28;45726;-79
2023/07/12 09:55:09;;;;;;;;;0.75;0.50;;;;;21.83;44.96;100830.94;5035330;28;45475;-79
2023/07/12 09:58:04;;;;;;;;;3.00;1.25;;;;;21.89;45.12;100842.75;5035072;28;45602;-82
2023/07/12 10:00:37;;;;;;;;;1.00;1.00;;;;;21.94;44.84;100832.38;5034690;28;45877;-80
2023/07/12 10:03:10;;;;;;;;;0.50;0.50;;;;;21.98;45.02;100833.69;5034705;28;45620;-82
2023/07/12 10:05:40;;;;;;;;;0.75;0.75;;;;;22.00;44.83;100823.69;5035823;28;45474;-78
2023/07/12 10:08:11;;;;;;;;;0.75;0.75;;;;;21.99;44.60;100833.53;5035769;28;47060;-78
2023/07/12 10:10:46;;;;;;;;;1.00;1.00;;;;;22.02;44.09;100851.88;5035916;28;45479;-80
2023/07/12 10:13:27;;;;;;;;;1.00;1.00;;;;;22.01;43.94;100833.38;5035447;28;45539;-78
2023/07/12 10:15:52;;;;;;;;;0.50;0.50;;;;;22.00;44.01;100823.69;5035127;28;45704;-78
2023/07/12 10:18:24;;;;;;;;;0.50;0.50;;;;;22.03;43.92;100829.50;5033120;28;46219;-77
2023/07/12 10:20:50;;;;;;;;;0.00;0.00;;;;;22.11;43.29;100826.78;5034599;28;46813;-80
2023/07/12 10:23:18;;;;;;;;;0.00;0.00;;;;;22.15;42.99;100829.91;5034641;28;45761;-76
2023/07/12 10:25:48;;;;;;;;;0.25;0.00;;;;;;;;5035637;28;45603;-75
2023/07/12 10:28:27;;;;;;;;;0.75;0.75;;;;;22.25;42.80;100818.97;5033367;28;48372;-76
2023/07/12 10:30:56;;;;;;;;;1.00;0.00;;;;;22.29;43.06;100817.63;5034273;28;45914;-84
2023/07/12 10:33:32;;;;;;;;;1.00;0.25;;;;;22.33;42.94;100816.25;5034524;28;45581;-79
2023/07/12 10:36:22;;;;;;;;;1.75;1.00;;;;;22.38;43.23;100844.09;5034466;28;45753;-78
2023/07/12 10:42:45;;;;;;;;;0.75;0.75;;;;;22.40;41.83;100812.66;5034189;28;46042;-83
2023/07/12 10:45:23;;;;;;;;;0.75;0.75;;;;;22.39;42.17;100810.19;5034439;28;45674;-85
2023/07/12 10:47:50;;;;;;;;;2.50;1.00;;;;;22.41;42.19;100813.50;5034752;28;45524;-84
2023/07/12 10:50:21;;;;;;;;;1.75;0.75;;;;;22.45;42.13;100804.97;5034255;28;46514;-84
2023/07/12 10:53:18;;;;;;;;;0.75;0.75;;;;;22.53;42.08;100812.91;5033981;28;46430;-84
2023/07/12 10:59:30;;;;;;;;;1.00;1.00;;;;;22.67;42.15;100807.78;5035474;28;45691;-81
2023/07/12 11:02:14;;;;;;;;;1.00;0.00;;;;;22.75;41.25;100805.88;5032624;28;47508;-79
2023/07/12 11:04:48;;;;;;;;;0.75;0.75;;;;;22.81;40.96;100798.97;5033958;28;46140;-80
2023/07/12 11:07:14;;;;;;;;;0.00;0.00;;;;;22.87;40.42;100803.56;5033957;28;45515;-83
2023/07/12 11:09:42;;;;;;;;;1.00;1.00;;;;;22.95;40.35;100806.13;5034019;28;45728;-81
2023/07/12 11:12:11;;;;;;;;;1.00;1.00;;;;;23.00;40.49;100803.75;5034014;28;45594;-80
2023/07/12 11:14:40;;;;;;;;;1.25;1.00;;;;;23.09;40.10;100791.97;5033937;28;45700;-76
2023/07/12 11:17:05;;;;;;;;;0.75;0.75;;;;;23.16;40.92;100792.84;5033924;28;45595;-81
2023/07/12 11:19:44;;;;;;;;;1.00;1.00;;;;;23.24;40.27;100791.94;5035512;28;45716;-78
2023/07/12 11:22:12;;;;;;;;;0.75;0.75;;;;;23.32;39.66;100789.16;5037570;28;45638;-85
2023/07/12 11:25:24;;;;;;;;;1.00;1.00;;;;;23.33;39.40;100790.81;5037481;28;45662;-75
2023/07/12 11:28:01;;;;;;;;;1.00;1.00;;;;;23.32;39.34;100778.47;5037199;28;45643;-78
2023/07/12 11:30:27;;;;;;;;;2.25;1.00;;;;;23.36;39.51;100787.78;5037317;28;45450;-76
2023/07/12 11:33:12;;;;;;;;;0.75;0.75;;;;;23.41;39.72;100786.19;5037105;28;46903;-76
2023/07/12 11:35:51;;;;;;;;;1.75;1.00;;;;;23.48;39.65;100782.81;5037091;28;46147;-74
2023/07/12 11:38:20;;;;;;;;;2.25;2.00;;;;;23.56;40.18;100785.34;5037208;28;45610;-76
2023/07/12 11:40:50;;;;;;;;;2.50;1.00;;;;;23.59;39.49;100783.09;5037134;28;45468;-79
2023/07/12 11:43:32;;;;;;;;;1.00;1.00;;;;;23.60;39.30;100784.78;5036984;28;46467;-80
2023/07/12 11:45:57;;;;;;;;;1.00;1.00;;;;;23.58;39.34;100778.81;5037242;28;45979;-79
2023/07/12 11:48:25;;;;;;;;;1.00;1.00;;;;;23.59;38.78;100783.09;5037107;28;45597;-84
2023/07/12 11:50:52;;;;;;;;;1.00;1.00;;;;;23.58;38.65;100780.66;5037466;28;45748;-79
2023/07/12 11:53:19;;;;;;;;;1.00;1.00;;;;;23.54;38.81;100796.22;5037049;28;45671;-81
2023/07/12 11:55:49;;;;;;;;;1.00;1.00;;;;;23.51;38.33;100782.41;5052502;28;45924;-84
2023/07/12 11:58:17;;;;;;;;;1.25;1.00;;;;;23.49;38.28;100801.31;5038561;28;45745;-76
2023/07/12 12:00:45;;;;;;;;;1.00;0.00;;;;;23.44;37.78;100780.44;5037053;28;45667;-77
2023/07/12 12:03:13;;;;;;;;;1.50;1.50;;;;;23.47;38.33;100790.00;5036752;28;46854;-79
2023/07/12 12:05:39;;;;;;;;;1.00;0.25;;;;;23.52;37.90;100792.94;5037082;28;45687;-76
2023/07/12 12:08:06;;;;;;;;;0.00;0.00;;;;;23.54;38.01;100782.03;5037153;28;46117;-77
2023/07/12 12:10:35;;;;;;;;;0.75;0.75;;;;;23.61;37.92;100781.09;5037261;28;45603;-74
2023/07/12 12:13:24;;;;;;;;;1.00;0.50;;;;;23.63;37.15;100796.97;5036430;28;45549;-78
2023/07/12 12:15:58;;;;;;;;;0.00;0.00;;;;;23.66;37.82;100788.53;5036806;28;45633;-77
2023/07/12 12:18:23;;;;;;;;;1.00;1.00;;;;;23.68;37.33;100794.53;5036982;28;45620;-82
2023/07/12 12:21:00;;;;;;;;;1.00;1.00;;;;;23.69;37.40;100793.53;5036942;28;45518;-83
2023/07/12 12:23:41;;;;;;;;;1.00;1.00;;;;;23.70;37.45;100797.84;5036933;28;45772;-80
2023/07/12 12:26:31;;;;;;;;;1.00;1.00;;;;;23.70;37.00;100793.31;5037155;28;45559;-80
2023/07/12 12:28:57;;;;;;;;;1.00;1.00;;;;;23.70;37.03;100779.94;5036541;28;45565;-81
2023/07/12 12:31:25;;;;;;;;;1.25;1.00;;;;;23.74;37.29;100786.59;5036946;28;45821;-85
2023/07/12 12:34:03;;;;;;;;;1.25;0.75;;;;;23.78;37.57;100781.69;5037977;28;46768;-80
2023/07/12 12:36:33;;;;;;;;;0.75;0.25;;;;;23.84;36.89;100779.06;5037010;28;46330;-78
2023/07/12 12:39:05;;;;;;;;;0.00;0.00;;;;;23.95;36.67;100777.72;5036276;28;45687;-80
2023/07/12 12:41:43;;;;;;;;;1.25;1.00;;;;;24.06;37.18;100798.63;5036426;28;45638;-79
2023/07/12 12:44:17;;;;;;;;;1.25;1.25;;;;;24.14;35.76;100778.91;5036390;28;45882;-74
2023/07/12 12:46:43;;;;;;;;;1.00;1.00;;;;;24.19;36.17;100779.19;5036148;28;46003;-78